createdAt,value
2023-04-22T00:01:24.578Z,3.90
2023-04-22T00:04:29.981Z,3.78
2023-04-22T00:07:34.855Z,3.78
2023-04-22T00:10:39.244Z,3.65
2023-04-22T00:13:43.948Z,3.55
2023-04-22T00:16:48.387Z,3.42
2023-04-22T00:19:52.978Z,3.55
2023-04-22T00:22:57.394Z,3.75
2023-04-22T00:26:02.526Z,3.95
2023-04-22T00:29:07.006Z,3.70
2023-04-22T00:32:11.406Z,3.05
2023-04-22T00:35:15.813Z,3.63
2023-04-22T00:38:21.059Z,3.25
2023-04-22T00:41:26.188Z,3.50
2023-04-22T00:44:31.016Z,3.85
2023-04-22T00:47:36.479Z,3.55
2023-04-22T00:50:40.556Z,3.60
2023-04-22T00:53:44.634Z,3.92
2023-04-22T00:56:49.396Z,3.67
2023-04-22T00:59:54.058Z,3.88
2023-04-22T01:02:59.025Z,3.78
2023-04-22T01:06:03.675Z,3.60
2023-04-22T01:09:07.897Z,3.30
2023-04-22T01:12:12.333Z,3.67
2023-04-22T01:15:16.922Z,3.40
2023-04-22T01:18:21.175Z,3.75
2023-04-22T01:21:27.879Z,3.10
2023-04-22T01:24:33.252Z,3.83
2023-04-22T01:27:39.035Z,4.20
2023-04-22T01:30:44.073Z,3.85
2023-04-22T01:33:48.683Z,3.95
2023-04-22T01:36:52.963Z,4.03
2023-04-22T01:39:59.311Z,3.60
2023-04-22T01:43:03.772Z,3.75
2023-04-22T01:46:08.452Z,3.38
2023-04-22T01:49:12.852Z,3.80
2023-04-22T01:52:17.814Z,3.70
2023-04-22T01:55:22.391Z,3.88
2023-04-22T01:58:29.737Z,4.07
2023-04-22T02:01:34.353Z,3.85
2023-04-22T02:04:39.225Z,3.35
2023-04-22T02:07:43.817Z,4.40
2023-04-22T02:10:47.882Z,4.55
2023-04-22T02:13:52.675Z,4.22
2023-04-22T02:20:01.746Z,4.15
2023-04-22T02:23:06.516Z,4.28
2023-04-22T02:26:10.807Z,4.28
2023-04-22T02:29:16.265Z,4.47
2023-04-22T02:32:20.611Z,3.97
2023-04-22T02:35:24.780Z,5.15
2023-04-22T02:38:29.100Z,4.63
2023-04-22T02:41:33.472Z,4.47
2023-04-22T02:44:37.846Z,5.15
2023-04-22T02:47:42.762Z,5.00
2023-04-22T02:50:46.824Z,4.97
2023-04-22T03:00:00.037Z,4.85
2023-04-22T03:03:05.246Z,4.70
2023-04-22T03:06:09.829Z,4.95
2023-04-22T03:09:14.425Z,5.18
2023-04-22T03:15:22.498Z,5.10
2023-04-22T03:18:27.096Z,4.97
2023-04-22T03:21:32.370Z,4.85
2023-04-22T03:24:36.758Z,5.30
2023-04-22T03:27:41.328Z,5.45
2023-04-22T03:30:45.502Z,4.63
2023-04-22T03:33:49.867Z,5.20
2023-04-22T03:36:54.453Z,4.78
2023-04-22T03:39:58.773Z,5.65
2023-04-22T03:43:03.701Z,5.38
2023-04-22T03:46:08.152Z,5.43
2023-04-22T03:49:15.307Z,5.13
2023-04-22T03:52:19.433Z,5.28
2023-04-22T03:55:24.329Z,5.75
2023-04-22T03:58:28.624Z,6.05
2023-04-22T04:01:33.079Z,5.38
2023-04-22T04:04:37.953Z,6.15
2023-04-22T04:07:42.631Z,5.63
2023-04-22T04:10:46.653Z,5.45
2023-04-22T04:13:50.805Z,5.60
2023-04-22T04:16:55.090Z,6.47
2023-04-22T04:23:03.634Z,6.57
2023-04-22T04:26:08.140Z,6.25
2023-04-22T04:29:13.725Z,6.50
2023-04-22T04:32:18.457Z,6.28
2023-04-22T04:35:23.732Z,6.00
2023-04-22T04:38:28.927Z,6.57
2023-04-22T04:41:33.330Z,6.70
2023-04-22T04:44:37.734Z,6.50
2023-04-22T04:47:42.048Z,6.60
2023-04-22T04:50:47.128Z,6.90
2023-04-22T04:53:51.363Z,6.50
2023-04-22T04:56:57.341Z,7.18
2023-04-22T05:00:02.906Z,6.95
2023-04-22T05:03:07.771Z,7.13
2023-04-22T05:06:12.273Z,6.65
2023-04-22T05:09:17.353Z,6.85
2023-04-22T05:12:21.718Z,6.97
2023-04-22T05:15:26.046Z,7.85
2023-04-22T05:18:31.271Z,6.78
2023-04-22T05:21:35.987Z,7.28
2023-04-22T05:24:40.258Z,6.60
2023-04-22T05:27:44.627Z,7.72
2023-04-22T05:30:48.746Z,7.45
2023-04-22T05:33:53.292Z,8.43
2023-04-22T05:36:57.626Z,7.72
2023-04-22T05:40:02.040Z,7.13
2023-04-22T05:43:06.418Z,7.10
2023-04-22T05:46:10.923Z,7.47
2023-04-22T05:49:15.427Z,7.25
2023-04-22T05:52:19.862Z,7.25
2023-04-22T05:55:24.241Z,7.00
2023-04-22T05:58:28.616Z,7.38
2023-04-22T06:01:33.077Z,7.05
2023-04-22T06:04:38.132Z,7.10
2023-04-22T06:07:42.994Z,7.63
2023-04-22T06:10:47.260Z,7.22
2023-04-22T06:13:51.866Z,7.55
2023-04-22T06:16:55.953Z,7.28
2023-04-22T06:20:00.329Z,6.55
2023-04-22T06:23:05.368Z,8.02
2023-04-22T06:26:09.807Z,7.85
2023-04-22T06:29:14.224Z,7.40
2023-04-22T06:32:18.319Z,7.10
2023-04-22T06:35:22.823Z,6.97
2023-04-22T06:38:26.984Z,6.90
2023-04-22T06:41:32.794Z,6.70
2023-04-22T06:44:37.234Z,6.88
2023-04-22T06:47:41.944Z,7.00
2023-04-22T06:50:46.636Z,7.35
2023-04-22T06:53:51.077Z,7.28
2023-04-22T06:56:55.672Z,6.50
2023-04-22T06:59:59.914Z,6.85
2023-04-22T07:06:09.901Z,6.70
2023-04-22T07:09:14.069Z,7.15
2023-04-22T07:12:20.379Z,7.30
2023-04-22T07:15:24.783Z,6.78
2023-04-22T07:18:29.377Z,6.95
2023-04-22T07:21:34.033Z,6.82
2023-04-22T07:24:39.262Z,6.93
2023-04-22T07:27:43.858Z,6.93
2023-04-22T07:30:48.760Z,6.75
2023-04-22T07:33:53.420Z,6.72
2023-04-22T07:36:58.569Z,6.93
2023-04-22T07:40:02.774Z,6.97
2023-04-22T07:43:07.932Z,6.57
2023-04-22T07:46:12.461Z,6.65
2023-04-22T07:49:17.276Z,7.20
2023-04-22T07:52:21.875Z,6.43
2023-04-22T07:55:26.156Z,6.72
2023-04-22T07:58:30.351Z,6.68
2023-04-22T08:01:34.629Z,7.30
2023-04-22T08:04:40.276Z,6.63
2023-04-22T08:07:45.253Z,6.43
2023-04-22T08:10:49.451Z,6.22
2023-04-22T08:13:53.793Z,6.45
2023-04-22T08:16:57.865Z,6.30
2023-04-22T08:20:02.266Z,7.03
2023-04-22T08:23:07.549Z,5.80
2023-04-22T08:26:15.290Z,6.32
2023-04-22T08:29:19.901Z,6.25
2023-04-22T08:32:26.417Z,6.82
2023-04-22T08:35:31.016Z,6.50
2023-04-22T08:38:35.603Z,6.53
2023-04-22T08:41:40.238Z,6.70
2023-04-22T08:44:45.542Z,6.95
2023-04-22T08:47:51.135Z,5.93
2023-04-22T08:50:55.751Z,6.60
2023-04-22T08:54:00.805Z,5.47
2023-04-22T08:57:10.972Z,6.25
2023-04-22T09:00:16.689Z,6.57
2023-04-22T09:03:23.261Z,6.28
2023-04-22T09:06:27.698Z,6.00
2023-04-22T09:09:32.492Z,6.05
2023-04-22T09:12:38.793Z,6.32
2023-04-22T09:15:43.461Z,5.50
2023-04-22T09:18:47.812Z,5.90
2023-04-22T09:21:54.216Z,4.80
2023-04-22T09:24:58.884Z,5.32
2023-04-22T09:34:22.270Z,5.95
2023-04-22T09:37:33.235Z,5.72
2023-04-22T09:40:44.453Z,5.90
2023-04-22T09:43:50.928Z,5.72
2023-04-22T09:46:56.118Z,5.70
2023-04-22T09:50:04.509Z,5.75
2023-04-22T09:53:12.464Z,5.50
2023-04-22T09:56:17.300Z,5.10
2023-04-22T09:59:24.754Z,5.53
2023-04-22T10:02:30.155Z,5.53
2023-04-22T10:05:37.846Z,6.35
2023-04-22T10:08:44.298Z,5.93
2023-04-22T10:11:55.159Z,6.03
2023-04-22T10:14:59.104Z,5.88
2023-04-22T10:18:07.933Z,6.18
2023-04-22T10:21:13.003Z,7.05
2023-04-22T10:24:19.318Z,6.25
2023-04-22T10:27:24.425Z,6.90
2023-04-22T10:30:31.485Z,6.50
2023-04-22T10:33:36.997Z,6.13
2023-04-22T10:37:11.593Z,5.97
2023-04-22T10:40:19.062Z,6.28
2023-04-22T10:43:43.108Z,6.55
2023-04-22T10:46:50.462Z,5.63
2023-04-22T10:50:26.795Z,4.65
2023-04-22T10:53:37.934Z,5.13
2023-04-22T10:57:02.042Z,4.97
2023-04-22T11:00:24.086Z,4.47
2023-04-22T11:03:30.979Z,4.53
2023-04-22T11:06:35.812Z,3.95
2023-04-22T11:09:43.298Z,4.15
2023-04-22T11:12:50.185Z,3.75
2023-04-22T11:15:55.707Z,4.15
2023-04-22T11:19:00.658Z,3.30
2023-04-22T11:22:05.769Z,3.15
2023-04-22T11:25:10.748Z,4.05
2023-04-22T11:28:15.667Z,3.67
2023-04-22T11:31:20.098Z,3.40
2023-04-22T11:34:24.747Z,3.67
2023-04-22T11:37:29.420Z,3.38
2023-04-22T11:40:43.706Z,4.50
2023-04-22T11:43:56.668Z,4.75
2023-04-22T11:47:02.208Z,4.55
2023-04-22T11:50:13.750Z,4.32
2023-04-22T11:53:24.251Z,4.45
2023-04-22T11:56:28.314Z,5.07
2023-04-22T11:59:33.081Z,4.72
2023-04-22T12:02:37.777Z,4.35
2023-04-22T12:06:04.471Z,3.95
2023-04-22T12:09:09.245Z,4.28
2023-04-22T12:12:14.700Z,5.05
2023-04-22T12:15:18.894Z,4.10
2023-04-22T12:18:38.197Z,4.05
2023-04-22T12:21:42.715Z,4.05
2023-04-22T12:24:47.163Z,4.05
2023-04-22T12:27:51.370Z,4.20
2023-04-22T12:30:56.340Z,3.90
2023-04-22T12:34:00.801Z,4.00
2023-04-22T12:37:05.396Z,3.90
2023-04-22T12:40:11.578Z,4.90
2023-04-22T12:43:16.207Z,4.25
2023-04-22T12:46:21.014Z,3.58
2023-04-22T12:49:26.339Z,4.28
2023-04-22T12:52:31.211Z,3.65
2023-04-22T12:55:36.290Z,3.53
2023-04-22T12:58:40.402Z,3.15
2023-04-22T13:01:47.749Z,3.10
2023-04-22T13:04:52.405Z,3.58
2023-04-22T13:08:06.449Z,3.47
2023-04-22T13:11:11.981Z,3.45
2023-04-22T13:14:17.308Z,97.90
2023-04-22T13:17:22.105Z,3.22
2023-04-22T13:20:26.395Z,2.55
2023-04-22T13:23:30.841Z,2.65
2023-04-22T13:26:37.002Z,2.65
2023-04-22T13:29:42.161Z,2.92
2023-04-22T13:32:46.863Z,2.72
2023-04-22T13:35:51.651Z,2.88
2023-04-22T13:38:57.381Z,2.70
2023-04-22T13:42:04.008Z,2.53
2023-04-22T13:45:09.224Z,2.72
2023-04-22T13:48:15.176Z,2.47
2023-04-22T13:51:19.588Z,2.67
2023-04-22T13:54:24.093Z,2.30
2023-04-22T13:57:28.683Z,2.95
2023-04-22T14:00:34.384Z,5.65
2023-04-22T14:03:38.984Z,2.38
2023-04-22T14:06:43.643Z,2.00
2023-04-22T14:09:47.861Z,2.00
2023-04-22T14:12:52.584Z,2.40
2023-04-22T14:15:57.636Z,2.15
2023-04-22T14:19:02.726Z,3.42
2023-04-22T14:22:07.111Z,4.93
2023-04-22T14:25:11.279Z,2.20
2023-04-22T14:28:16.805Z,3.72
2023-04-22T14:31:21.023Z,14.95
2023-04-22T14:34:27.199Z,2.72
2023-04-22T14:37:32.272Z,2.50
2023-04-22T14:40:36.984Z,2.65
2023-04-22T14:43:41.167Z,2.97
2023-04-22T14:46:45.482Z,2.90
2023-04-22T14:49:49.925Z,3.17
2023-04-22T14:52:57.201Z,2.80
2023-04-22T14:56:01.946Z,3.00
2023-04-22T14:59:06.469Z,3.10
2023-04-22T15:02:17.468Z,2.28
2023-04-22T15:05:23.425Z,6.90
2023-04-22T15:08:27.800Z,3.03
2023-04-22T15:11:31.906Z,3.20
2023-04-22T15:14:36.594Z,3.10
2023-04-22T15:17:41.787Z,3.33
2023-04-22T15:20:49.649Z,3.28
2023-04-22T15:23:53.958Z,2.80
2023-04-22T15:27:01.159Z,3.60
2023-04-22T15:30:07.338Z,4.45
2023-04-22T15:33:11.566Z,3.20
2023-04-22T15:39:24.054Z,2.60
2023-04-22T15:42:28.232Z,2.30
2023-04-22T15:45:35.332Z,2.33
2023-04-22T15:48:41.368Z,2.40
2023-04-22T15:51:46.061Z,2.47
2023-04-22T15:54:50.993Z,2.50
2023-04-22T15:57:55.565Z,2.80
2023-04-22T16:01:11.460Z,3.33
2023-04-22T16:04:22.209Z,3.55
2023-04-22T16:07:27.369Z,3.97
2023-04-22T16:10:31.643Z,4.07
2023-04-22T16:13:36.161Z,2.58
2023-04-22T16:16:41.291Z,3.08
2023-04-22T16:19:45.738Z,2.70
2023-04-22T16:22:49.775Z,2.95
2023-04-22T16:26:02.657Z,2.53
2023-04-22T16:29:06.748Z,2.50
2023-04-22T16:32:11.979Z,2.50
2023-04-22T16:35:16.697Z,3.15
2023-04-22T16:38:21.011Z,2.80
2023-04-22T16:41:25.382Z,2.40
2023-04-22T16:44:30.081Z,2.90
2023-04-22T16:47:34.738Z,2.80
2023-04-22T16:50:39.425Z,2.83
2023-04-22T16:53:44.439Z,2.85
2023-04-22T16:56:49.060Z,2.50
2023-04-22T16:59:53.182Z,2.78
2023-04-22T17:02:57.683Z,2.50
2023-04-22T17:06:02.529Z,3.22
2023-04-22T17:09:07.300Z,2.55
2023-04-22T17:12:11.849Z,2.80
2023-04-22T17:15:16.454Z,2.22
2023-04-22T17:18:20.532Z,2.78
2023-04-22T17:21:26.146Z,2.72
2023-04-22T17:24:30.697Z,2.85
2023-04-22T17:27:35.245Z,3.25
2023-04-22T17:30:39.567Z,2.72
2023-04-22T17:33:43.906Z,2.90
2023-04-22T17:36:50.695Z,3.88
2023-04-22T17:39:56.332Z,3.30
2023-04-22T17:43:00.632Z,3.25
2023-04-22T17:46:05.294Z,4.03
2023-04-22T17:49:09.346Z,3.88
2023-04-22T17:52:13.571Z,3.95
2023-04-22T17:55:18.032Z,4.05
2023-04-22T17:58:22.262Z,3.92
2023-04-22T18:01:29.544Z,4.38
2023-04-22T18:04:34.286Z,4.13
2023-04-22T18:07:38.624Z,4.65
2023-04-22T18:10:42.880Z,5.07
2023-04-22T18:13:47.257Z,4.88
2023-04-22T18:16:52.536Z,4.22
2023-04-22T18:20:09.779Z,3.72
2023-04-22T18:23:21.773Z,2.95
2023-04-22T18:26:26.353Z,3.72
2023-04-22T18:29:30.567Z,4.10
2023-04-22T18:35:39.783Z,4.10
2023-04-22T18:38:44.671Z,3.00
2023-04-22T18:41:48.906Z,2.85
2023-04-22T18:44:53.468Z,3.50
2023-04-22T18:47:59.154Z,2.90
2023-04-22T18:51:03.987Z,3.15
2023-04-22T18:54:08.130Z,3.00
2023-04-22T18:57:12.737Z,3.15
2023-04-22T19:00:18.676Z,3.50
2023-04-22T19:03:23.313Z,3.97
2023-04-22T19:06:29.042Z,3.22
2023-04-22T19:09:33.263Z,3.38
2023-04-22T19:12:37.734Z,4.07
2023-04-22T19:15:42.340Z,3.63
2023-04-22T19:18:48.726Z,7.50
2023-04-22T19:21:54.481Z,5.30
2023-04-22T19:24:58.996Z,6.00
2023-04-22T19:28:03.475Z,7.28
2023-04-22T19:31:08.469Z,7.32
2023-04-22T19:34:13.239Z,12.57
2023-04-22T19:37:18.561Z,15.68
2023-04-22T19:40:23.411Z,16.05
2023-04-22T19:43:27.759Z,24.52
2023-04-22T19:46:32.027Z,15.00
2023-04-22T19:49:38.847Z,16.83
2023-04-22T19:52:47.468Z,20.63
2023-04-22T19:55:52.710Z,18.83
2023-04-22T19:58:58.994Z,25.05
2023-04-22T20:02:04.146Z,19.70
2023-04-22T20:05:09.599Z,22.95
2023-04-22T20:08:14.755Z,21.52
2023-04-22T20:11:21.330Z,22.95
2023-04-22T20:14:26.746Z,24.27
2023-04-22T20:17:35.601Z,23.80
2023-04-22T20:20:48.270Z,20.45
2023-04-22T20:23:57.049Z,17.08
2023-04-22T20:27:01.552Z,16.73
2023-04-22T20:30:07.333Z,15.63
2023-04-22T20:33:15.193Z,15.77
2023-04-22T20:36:24.091Z,15.52
2023-04-22T20:39:29.332Z,14.80
2023-04-22T20:42:35.168Z,14.55
2023-04-22T20:45:39.398Z,14.82
2023-04-22T20:48:43.930Z,15.27
2023-04-22T20:51:48.458Z,15.48
2023-04-22T20:54:56.520Z,15.68
2023-04-22T20:58:01.625Z,15.05
2023-04-22T21:01:09.012Z,13.88
2023-04-22T21:04:15.217Z,12.77
2023-04-22T21:07:23.361Z,12.68
2023-04-22T21:10:28.343Z,13.63
2023-04-22T21:13:32.945Z,12.82
2023-04-22T21:16:41.898Z,12.20
2023-04-22T21:19:49.704Z,11.65
2023-04-22T21:22:55.061Z,13.43
2023-04-22T21:26:01.999Z,14.85
2023-04-22T21:29:07.448Z,30.83
2023-04-22T21:32:11.931Z,17.77
2023-04-22T21:35:16.775Z,18.17
2023-04-22T21:38:21.367Z,17.80
2023-04-22T21:41:26.223Z,19.20
2023-04-22T21:44:30.561Z,20.33
2023-04-22T21:47:34.986Z,21.40
2023-04-22T21:50:39.422Z,23.25
2023-04-22T21:53:44.538Z,23.35
2023-04-22T21:56:48.965Z,23.48
2023-04-22T21:59:53.491Z,24.85
2023-04-22T22:02:58.206Z,24.75
2023-04-22T22:06:02.886Z,23.98
2023-04-22T22:09:07.706Z,23.13
2023-04-22T22:12:12.378Z,24.60
2023-04-22T22:15:16.797Z,25.65
2023-04-22T22:18:21.332Z,25.92
2023-04-22T22:21:25.663Z,24.70
2023-04-22T22:24:30.177Z,24.10
2023-04-22T22:27:35.978Z,25.50
2023-04-22T22:30:41.022Z,23.35
2023-04-22T22:33:45.791Z,23.52
2023-04-22T22:36:50.067Z,24.15
2023-04-22T22:39:54.281Z,23.83
2023-04-22T22:42:58.461Z,21.98
2023-04-22T22:46:03.628Z,21.85
2023-04-22T22:49:07.902Z,20.85
2023-04-22T22:52:13.283Z,20.58
2023-04-22T22:55:17.331Z,20.58
2023-04-22T22:58:21.635Z,19.73
2023-04-22T23:01:26.215Z,20.02
2023-04-22T23:04:30.973Z,20.25
2023-04-22T23:07:35.921Z,19.10
2023-04-22T23:10:40.536Z,18.75
2023-04-22T23:13:44.880Z,18.52
2023-04-22T23:16:49.630Z,17.85
2023-04-22T23:19:55.162Z,18.73
2023-04-22T23:23:00.511Z,18.42
2023-04-22T23:26:05.372Z,18.58
2023-04-22T23:29:10.468Z,17.98
2023-04-22T23:32:18.966Z,19.00
2023-04-22T23:35:27.118Z,17.73
2023-04-22T23:38:31.753Z,19.63
2023-04-22T23:41:36.727Z,19.60
2023-04-22T23:44:41.289Z,20.15
2023-04-22T23:47:46.855Z,20.33
2023-04-22T23:50:50.953Z,20.15
2023-04-22T23:53:55.458Z,20.50
2023-04-22T23:57:01.055Z,20.75
